createdAt,value
2022-09-02T00:01:23.882Z,3.65
2022-09-02T00:03:52.488Z,2.00
2022-09-02T00:06:19.530Z,3.28
2022-09-02T00:08:46.202Z,2.00
2022-09-02T00:11:16.078Z,2.28
2022-09-02T00:13:43.949Z,3.63
2022-09-02T00:16:11.505Z,2.45
2022-09-02T00:18:38.404Z,2.38
2022-09-02T00:21:05.375Z,2.35
2022-09-02T00:23:32.125Z,2.10
2022-09-02T00:25:59.066Z,1.90
2022-09-02T00:28:25.720Z,2.55
2022-09-02T00:30:52.941Z,3.17
2022-09-02T00:33:19.651Z,2.45
2022-09-02T00:35:46.320Z,2.25
2022-09-02T00:38:13.075Z,2.63
2022-09-02T00:40:44.878Z,3.75
2022-09-02T00:43:11.818Z,2.15
2022-09-02T00:45:38.484Z,1.60
2022-09-02T00:48:06.242Z,1.98
2022-09-02T00:50:36.699Z,3.35
2022-09-02T00:53:09.717Z,1.63
2022-09-02T00:55:46.384Z,2.92
2022-09-02T00:58:34.256Z,6.13
2022-09-02T01:01:00.906Z,2.42
2022-09-02T01:03:31.223Z,2.53
2022-09-02T01:05:59.513Z,4.03
2022-09-02T01:08:29.977Z,1.50
2022-09-02T01:10:57.237Z,2.17
2022-09-02T01:13:28.481Z,1.58
2022-09-02T01:16:06.340Z,3.13
2022-09-02T01:18:35.620Z,1.95
2022-09-02T01:21:02.542Z,2.88
2022-09-02T01:23:31.208Z,1.67
2022-09-02T01:26:01.864Z,3.17
2022-09-02T01:28:28.460Z,1.98
2022-09-02T01:30:55.416Z,1.58
2022-09-02T01:33:23.629Z,1.55
2022-09-02T01:35:52.408Z,3.20
2022-09-02T01:38:20.722Z,4.47
2022-09-02T01:40:47.830Z,2.53
2022-09-02T01:43:18.290Z,4.00
2022-09-02T01:45:46.594Z,3.05
2022-09-02T01:48:14.549Z,1.80
2022-09-02T01:50:58.851Z,2.25
2022-09-02T01:53:26.062Z,1.92
2022-09-02T01:55:52.662Z,6.20
2022-09-02T01:58:20.118Z,4.60
2022-09-02T02:00:47.741Z,1.70
2022-09-02T02:03:14.469Z,1.83
2022-09-02T02:05:41.396Z,1.85
2022-09-02T02:08:08.017Z,1.27
2022-09-02T02:10:35.064Z,2.75
2022-09-02T02:13:02.263Z,4.15
2022-09-02T02:17:54.771Z,1.45
2022-09-02T02:20:21.675Z,2.08
2022-09-02T02:22:48.663Z,2.33
2022-09-02T02:25:16.129Z,1.60
2022-09-02T02:27:43.777Z,1.70
2022-09-02T02:30:12.016Z,1.13
2022-09-02T02:32:38.648Z,1.50
2022-09-02T02:35:06.567Z,1.83
2022-09-02T02:37:33.237Z,1.35
2022-09-02T02:39:59.857Z,2.45
2022-09-02T02:42:26.458Z,3.92
2022-09-02T02:44:52.997Z,3.58
2022-09-02T02:47:19.517Z,2.63
2022-09-02T02:49:46.104Z,2.72
2022-09-02T02:52:13.500Z,1.73
2022-09-02T02:54:41.029Z,2.05
2022-09-02T02:57:08.884Z,2.15
2022-09-02T02:59:36.918Z,1.10
2022-09-02T03:02:05.239Z,3.83
2022-09-02T03:04:32.329Z,3.53
2022-09-02T03:06:59.056Z,2.13
2022-09-02T03:09:25.650Z,1.67
2022-09-02T03:11:52.206Z,3.70
2022-09-02T03:14:19.049Z,2.35
2022-09-02T03:16:45.635Z,3.10
2022-09-02T03:19:14.240Z,1.73
2022-09-02T03:21:41.768Z,2.58
2022-09-02T03:24:10.533Z,2.13
2022-09-02T03:26:37.572Z,2.03
2022-09-02T03:29:04.616Z,2.28
2022-09-02T03:31:31.589Z,1.92
2022-09-02T03:33:58.172Z,2.03
2022-09-02T03:36:28.944Z,1.52
2022-09-02T03:38:56.386Z,0.93
2022-09-02T03:41:23.214Z,1.70
2022-09-02T03:43:50.495Z,4.10
2022-09-02T03:46:17.881Z,1.98
2022-09-02T03:48:44.729Z,1.05
2022-09-02T03:51:11.494Z,2.70
2022-09-02T03:53:39.225Z,1.08
2022-09-02T03:56:07.971Z,2.42
2022-09-02T03:58:35.529Z,1.92
2022-09-02T04:01:02.828Z,1.30
2022-09-02T04:03:29.435Z,3.17
2022-09-02T04:05:56.215Z,2.65
2022-09-02T04:08:23.683Z,2.75
2022-09-02T04:10:50.927Z,2.97
2022-09-02T04:13:18.402Z,4.13
2022-09-02T04:15:48.149Z,1.98
2022-09-02T04:18:17.221Z,3.83
2022-09-02T04:20:44.654Z,2.85
2022-09-02T04:23:11.527Z,1.83
2022-09-02T04:25:43.183Z,0.77
2022-09-02T04:28:10.458Z,1.52
2022-09-02T04:30:41.888Z,3.92
2022-09-02T04:33:08.795Z,1.70
2022-09-02T04:35:36.013Z,1.20
2022-09-02T04:38:03.109Z,1.65
2022-09-02T04:40:29.749Z,1.67
2022-09-02T04:42:56.295Z,2.58
2022-09-02T04:45:26.582Z,1.42
2022-09-02T04:47:55.741Z,1.27
2022-09-02T04:50:22.299Z,2.92
2022-09-02T04:52:48.904Z,1.52
2022-09-02T04:55:19.412Z,2.28
2022-09-02T04:57:46.001Z,1.65
2022-09-02T05:00:13.487Z,1.48
2022-09-02T05:02:40.962Z,2.83
2022-09-02T05:05:08.229Z,4.57
2022-09-02T05:07:37.676Z,1.88
2022-09-02T05:10:06.256Z,4.55
2022-09-02T05:12:34.558Z,4.10
2022-09-02T05:15:01.896Z,1.77
2022-09-02T05:17:31.892Z,3.75
2022-09-02T05:19:58.771Z,4.97
2022-09-02T05:22:26.289Z,2.28
2022-09-02T05:24:52.867Z,3.03
2022-09-02T05:27:20.386Z,2.08
2022-09-02T05:29:47.868Z,3.30
2022-09-02T05:32:14.564Z,1.88
2022-09-02T05:34:41.145Z,1.40
2022-09-02T05:37:07.706Z,1.63
2022-09-02T05:39:34.932Z,3.13
2022-09-02T05:42:01.537Z,3.88
2022-09-02T05:44:30.590Z,3.97
2022-09-02T05:46:57.148Z,1.95
2022-09-02T05:49:23.893Z,2.53
2022-09-02T05:51:55.809Z,4.22
2022-09-02T05:54:31.729Z,2.05
2022-09-02T05:57:02.521Z,2.28
2022-09-02T05:59:30.810Z,0.90
2022-09-02T06:01:59.305Z,1.85
2022-09-02T06:04:26.143Z,2.08
2022-09-02T06:06:52.859Z,4.22
2022-09-02T06:09:22.010Z,2.92
2022-09-02T06:11:49.763Z,1.77
2022-09-02T06:14:22.014Z,2.35
2022-09-02T06:16:50.534Z,4.88
2022-09-02T06:19:20.169Z,4.28
2022-09-02T06:21:48.079Z,5.35
2022-09-02T06:24:14.701Z,8.82
2022-09-02T06:26:42.111Z,8.50
2022-09-02T06:29:10.557Z,12.55
2022-09-02T06:31:37.614Z,10.35
2022-09-02T06:34:04.782Z,9.85
2022-09-02T06:36:31.642Z,8.00
2022-09-02T06:39:03.286Z,7.55
2022-09-02T06:41:31.949Z,8.93
2022-09-02T06:44:03.833Z,10.90
2022-09-02T06:46:37.446Z,9.00
2022-09-02T06:49:06.364Z,7.35
2022-09-02T06:51:36.441Z,16.60
2022-09-02T06:54:04.574Z,8.25
2022-09-02T06:56:31.202Z,17.50
2022-09-02T06:58:57.755Z,14.05
2022-09-02T07:01:28.253Z,20.70
2022-09-02T07:04:14.083Z,15.88
2022-09-02T07:06:44.785Z,14.23
2022-09-02T07:09:14.589Z,15.43
2022-09-02T07:11:41.182Z,14.32
2022-09-02T07:14:07.758Z,14.13
2022-09-02T07:16:38.625Z,15.98
2022-09-02T07:19:09.945Z,12.07
2022-09-02T07:21:41.124Z,16.25
2022-09-02T07:24:09.229Z,11.80
2022-09-02T07:26:36.126Z,14.02
2022-09-02T07:29:02.976Z,11.20
2022-09-02T07:31:30.347Z,12.00
2022-09-02T07:34:00.561Z,18.00
2022-09-02T07:36:27.311Z,9.63
2022-09-02T07:38:54.105Z,11.05
2022-09-02T07:41:21.352Z,10.15
2022-09-02T07:43:51.017Z,12.70
2022-09-02T07:46:19.311Z,7.53
2022-09-02T07:48:45.950Z,7.57
2022-09-02T07:51:12.827Z,12.27
2022-09-02T07:53:39.926Z,7.63
2022-09-02T07:56:06.577Z,13.20
2022-09-02T07:58:33.207Z,7.65
2022-09-02T08:00:59.837Z,10.00
2022-09-02T08:03:27.112Z,10.00
2022-09-02T08:05:54.424Z,8.63
2022-09-02T08:08:21.369Z,7.78
2022-09-02T08:10:50.367Z,9.57
2022-09-02T08:13:17.546Z,8.00
2022-09-02T08:15:45.447Z,6.78
2022-09-02T08:18:12.377Z,13.27
2022-09-02T08:20:48.256Z,12.80
2022-09-02T08:23:25.601Z,8.43
2022-09-02T08:26:02.476Z,10.77
2022-09-02T08:28:31.885Z,7.95
2022-09-02T08:30:59.423Z,9.10
2022-09-02T08:33:26.378Z,9.88
2022-09-02T08:35:53.036Z,6.75
2022-09-02T08:38:21.957Z,8.18
2022-09-02T08:40:50.955Z,7.78
2022-09-02T08:43:31.006Z,9.45
2022-09-02T08:46:02.978Z,7.97
2022-09-02T08:48:55.783Z,9.13
2022-09-02T08:51:37.193Z,8.55
2022-09-02T08:54:22.937Z,10.10
2022-09-02T08:56:51.651Z,7.85
2022-09-02T08:59:25.401Z,9.73
2022-09-02T09:02:13.159Z,8.30
2022-09-02T09:05:01.605Z,5.40
2022-09-02T09:08:01.976Z,6.55
2022-09-02T09:10:48.379Z,5.35
2022-09-02T09:13:41.562Z,4.70
2022-09-02T09:16:30.325Z,6.85
2022-09-02T09:19:12.798Z,8.13
2022-09-02T09:21:40.936Z,5.97
2022-09-02T09:24:29.336Z,4.95
2022-09-02T09:26:56.559Z,6.07
2022-09-02T09:29:23.113Z,6.50
2022-09-02T09:31:57.072Z,5.57
2022-09-02T09:34:23.661Z,6.15
2022-09-02T09:36:51.785Z,5.45
2022-09-02T09:39:31.077Z,6.18
2022-09-02T09:42:03.303Z,5.18
2022-09-02T09:44:45.006Z,6.90
2022-09-02T09:47:25.568Z,6.47
2022-09-02T09:49:54.599Z,3.95
2022-09-02T09:52:27.117Z,5.40
2022-09-02T09:55:20.965Z,5.25
2022-09-02T09:57:51.618Z,3.92
2022-09-02T10:00:26.852Z,4.43
2022-09-02T10:02:56.837Z,5.55
2022-09-02T10:05:26.445Z,8.60
2022-09-02T10:07:59.180Z,5.47
2022-09-02T10:10:29.034Z,4.90
2022-09-02T10:13:16.593Z,3.67
2022-09-02T10:16:06.172Z,5.75
2022-09-02T10:18:44.846Z,4.22
2022-09-02T10:21:21.857Z,4.43
2022-09-02T10:24:30.699Z,4.15
2022-09-02T10:26:59.981Z,3.00
2022-09-02T10:29:38.430Z,5.55
2022-09-02T10:32:41.244Z,4.03
2022-09-02T10:35:21.522Z,4.78
2022-09-02T10:37:48.260Z,4.75
2022-09-02T10:40:19.613Z,3.90
2022-09-02T10:42:58.681Z,4.22
2022-09-02T10:45:40.977Z,3.63
2022-09-02T10:48:27.300Z,4.55
2022-09-02T10:51:02.884Z,3.85
2022-09-02T10:54:05.009Z,6.93
2022-09-02T10:56:50.749Z,2.95
2022-09-02T10:59:25.851Z,5.20
2022-09-02T11:02:00.576Z,3.65
2022-09-02T11:04:50.216Z,3.65
2022-09-02T11:07:27.807Z,3.30
2022-09-02T11:10:09.669Z,3.75
2022-09-02T11:12:46.043Z,3.22
2022-09-02T11:15:39.838Z,2.67
2022-09-02T11:18:35.655Z,2.60
2022-09-02T11:21:39.398Z,3.78
2022-09-02T11:24:22.269Z,6.07
2022-09-02T11:27:32.141Z,3.75
2022-09-02T11:30:13.826Z,2.45
2022-09-02T11:32:52.730Z,2.83
2022-09-02T11:35:27.983Z,4.60
2022-09-02T11:38:02.042Z,3.17
2022-09-02T11:40:44.670Z,2.63
2022-09-02T11:43:49.574Z,6.40
2022-09-02T11:46:48.259Z,4.88
2022-09-02T11:49:34.903Z,3.17
2022-09-02T11:52:07.303Z,8.90
2022-09-02T11:54:43.959Z,6.53
2022-09-02T11:57:15.343Z,4.65
2022-09-02T11:59:51.247Z,4.93
2022-09-02T12:02:41.966Z,4.97
2022-09-02T12:05:30.581Z,4.18
2022-09-02T12:08:12.461Z,3.17
2022-09-02T12:10:39.949Z,2.33
2022-09-02T12:13:09.479Z,4.35
2022-09-02T12:15:37.207Z,5.00
2022-09-02T12:18:28.434Z,7.07
2022-09-02T12:20:57.758Z,3.25
2022-09-02T12:23:53.217Z,4.75
2022-09-02T12:26:22.346Z,3.03
2022-09-02T12:28:50.891Z,4.38
2022-09-02T12:31:22.628Z,3.80
2022-09-02T12:33:51.705Z,3.20
2022-09-02T12:36:54.729Z,2.72
2022-09-02T12:39:24.312Z,3.38
2022-09-02T12:42:03.579Z,4.72
2022-09-02T12:44:48.449Z,3.20
2022-09-02T12:47:24.019Z,3.72
2022-09-02T12:50:07.834Z,4.00
2022-09-02T12:52:35.676Z,3.55
2022-09-02T12:55:29.912Z,2.40
2022-09-02T12:58:09.644Z,3.90
2022-09-02T13:00:54.867Z,4.03
2022-09-02T13:03:45.909Z,5.63
2022-09-02T13:06:58.290Z,4.00
2022-09-02T13:09:54.276Z,4.82
2022-09-02T13:12:39.044Z,3.97
2022-09-02T13:15:24.435Z,7.57
2022-09-02T13:18:25.183Z,5.25
2022-09-02T13:21:00.419Z,3.35
2022-09-02T13:23:48.182Z,5.55
2022-09-02T13:26:50.441Z,3.35
2022-09-02T13:29:45.047Z,3.00
2022-09-02T13:32:23.013Z,4.55
2022-09-02T13:34:52.427Z,5.35
2022-09-02T13:37:29.070Z,4.25
2022-09-02T13:39:56.202Z,4.07
2022-09-02T13:42:25.305Z,8.02
2022-09-02T13:45:09.488Z,4.55
2022-09-02T13:47:36.871Z,2.80
2022-09-02T13:50:05.831Z,3.70
2022-09-02T13:53:12.409Z,4.90
2022-09-02T13:55:20.801Z,4.50
2022-09-02T13:57:53.398Z,8.80
2022-09-02T14:00:32.862Z,5.68
2022-09-02T14:03:06.349Z,7.55
2022-09-02T14:05:36.025Z,3.88
2022-09-02T14:08:06.614Z,5.55
2022-09-02T14:10:35.324Z,3.15
2022-09-02T14:13:04.472Z,3.05
2022-09-02T14:15:32.874Z,3.63
2022-09-02T14:18:18.957Z,4.82
2022-09-02T14:20:58.741Z,5.38
2022-09-02T14:23:27.082Z,2.50
2022-09-02T14:25:58.863Z,4.47
2022-09-02T14:28:29.543Z,3.20
2022-09-02T14:30:59.032Z,9.52
2022-09-02T14:33:35.786Z,6.78
2022-09-02T14:36:05.496Z,3.90
2022-09-02T14:38:47.132Z,4.43
2022-09-02T14:41:22.293Z,4.30
2022-09-02T14:43:54.465Z,3.75
2022-09-02T14:46:23.996Z,7.55
2022-09-02T14:49:12.022Z,5.43
2022-09-02T14:51:45.221Z,5.57
2022-09-02T14:54:12.217Z,2.88
2022-09-02T14:56:54.236Z,3.20
2022-09-02T14:59:20.900Z,5.93
2022-09-02T15:01:51.464Z,6.18
2022-09-02T15:04:19.435Z,4.60
2022-09-02T15:06:47.597Z,6.35
2022-09-02T15:09:18.274Z,4.15
2022-09-02T15:11:50.707Z,3.33
2022-09-02T15:14:17.278Z,4.03
2022-09-02T15:16:43.829Z,4.93
2022-09-02T15:19:10.403Z,5.38
2022-09-02T15:21:37.052Z,7.68
2022-09-02T15:24:04.143Z,6.18
2022-09-02T15:26:30.705Z,3.78
2022-09-02T15:28:57.353Z,4.00
2022-09-02T15:31:24.003Z,6.93
2022-09-02T15:33:51.731Z,6.43
2022-09-02T15:36:19.203Z,5.20
2022-09-02T15:38:45.791Z,4.07
2022-09-02T15:41:14.973Z,2.72
2022-09-02T15:43:42.181Z,6.45
2022-09-02T15:46:30.037Z,5.22
2022-09-02T15:49:02.612Z,4.20
2022-09-02T15:51:29.839Z,4.88
2022-09-02T15:54:02.370Z,3.72
2022-09-02T15:56:30.638Z,2.75
2022-09-02T15:58:59.541Z,7.60
2022-09-02T16:01:28.121Z,4.63
2022-09-02T16:03:55.906Z,5.05
2022-09-02T16:06:22.444Z,5.72
2022-09-02T16:08:49.041Z,3.38
2022-09-02T16:11:15.957Z,3.42
2022-09-02T16:13:42.988Z,6.45
2022-09-02T16:16:11.473Z,2.90
2022-09-02T16:18:39.489Z,4.85
2022-09-02T16:21:07.695Z,5.22
2022-09-02T16:23:35.298Z,5.38
2022-09-02T16:26:24.599Z,3.00
2022-09-02T16:28:53.691Z,3.58
2022-09-02T16:31:21.767Z,4.22
2022-09-02T16:33:59.811Z,2.35
2022-09-02T16:36:33.000Z,2.20
2022-09-02T16:39:01.182Z,3.08
2022-09-02T16:41:36.529Z,5.82
2022-09-02T16:44:08.304Z,4.13
2022-09-02T16:46:36.428Z,2.30
2022-09-02T16:49:03.297Z,3.95
2022-09-02T16:51:33.478Z,3.95
2022-09-02T16:54:02.476Z,3.70
2022-09-02T16:56:30.740Z,2.80
2022-09-02T16:59:01.776Z,3.20
2022-09-02T17:01:32.392Z,5.90
2022-09-02T17:04:00.368Z,4.25
2022-09-02T17:06:28.017Z,5.15
2022-09-02T17:08:54.649Z,4.03
2022-09-02T17:11:24.196Z,4.57
2022-09-02T17:13:53.530Z,3.95
2022-09-02T17:16:21.809Z,3.45
2022-09-02T17:18:48.946Z,5.72
2022-09-02T17:21:27.667Z,3.72
2022-09-02T17:23:54.933Z,3.67
2022-09-02T17:26:24.069Z,4.85
2022-09-02T17:28:53.249Z,6.80
2022-09-02T17:31:30.086Z,6.13
2022-09-02T17:33:58.816Z,3.53
2022-09-02T17:36:27.022Z,6.50
2022-09-02T17:38:58.271Z,5.07
2022-09-02T17:41:44.496Z,2.78
2022-09-02T17:44:12.944Z,3.63
2022-09-02T17:46:39.974Z,2.60
2022-09-02T17:49:16.887Z,6.13
2022-09-02T17:51:44.569Z,5.82
2022-09-02T17:54:12.176Z,5.68
2022-09-02T17:57:16.211Z,7.60
2022-09-02T18:00:01.434Z,5.60
2022-09-02T18:02:40.452Z,2.45
2022-09-02T18:05:29.636Z,3.30
2022-09-02T18:08:14.783Z,3.45
2022-09-02T18:10:56.648Z,3.55
2022-09-02T18:14:01.973Z,5.30
2022-09-02T18:16:30.579Z,3.63
2022-09-02T18:19:19.671Z,4.95
2022-09-02T18:21:58.758Z,4.97
2022-09-02T18:24:41.041Z,5.65
2022-09-02T18:27:19.711Z,2.95
2022-09-02T18:30:11.658Z,4.88
2022-09-02T18:32:47.071Z,3.13
2022-09-02T18:35:31.613Z,3.70
2022-09-02T18:38:15.826Z,5.55
2022-09-02T18:41:09.964Z,3.88
2022-09-02T18:43:55.415Z,2.90
2022-09-02T18:46:25.070Z,5.05
2022-09-02T18:48:54.634Z,3.08
2022-09-02T18:51:41.511Z,5.72
2022-09-02T18:54:15.856Z,4.53
2022-09-02T18:56:50.257Z,4.82
2022-09-02T18:59:25.976Z,2.83
2022-09-02T19:01:57.152Z,4.47
2022-09-02T19:04:29.409Z,4.10
2022-09-02T19:07:16.722Z,2.60
2022-09-02T19:09:43.529Z,2.47
2022-09-02T19:12:10.889Z,3.08
2022-09-02T19:14:40.463Z,3.13
2022-09-02T19:17:08.884Z,4.95
2022-09-02T19:19:35.489Z,4.47
2022-09-02T19:22:11.166Z,3.60
2022-09-02T19:24:44.399Z,4.63
2022-09-02T19:27:14.615Z,3.22
2022-09-02T19:29:45.294Z,6.18
2022-09-02T19:32:14.199Z,5.38
2022-09-02T19:34:45.040Z,3.45
2022-09-02T19:37:13.904Z,8.68
2022-09-02T19:39:40.550Z,3.20
2022-09-02T19:42:07.152Z,3.35
2022-09-02T19:44:33.710Z,8.25
2022-09-02T19:49:48.136Z,4.03
2022-09-02T19:52:14.716Z,3.03
2022-09-02T19:54:41.739Z,3.67
2022-09-02T19:57:08.347Z,4.35
2022-09-02T19:59:34.919Z,3.83
2022-09-02T20:02:03.361Z,4.03
2022-09-02T20:04:31.228Z,3.90
2022-09-02T20:06:58.910Z,5.40
2022-09-02T20:09:29.431Z,5.28
2022-09-02T20:11:56.297Z,5.03
2022-09-02T20:14:22.917Z,4.70
2022-09-02T20:16:54.274Z,7.35
2022-09-02T20:19:21.443Z,8.10
2022-09-02T20:21:49.364Z,6.97
2022-09-02T20:24:25.282Z,4.82
2022-09-02T20:27:28.957Z,3.83
2022-09-02T20:30:07.557Z,4.13
2022-09-02T20:32:59.569Z,4.25
2022-09-02T20:36:11.052Z,4.75
2022-09-02T20:38:57.166Z,5.45
2022-09-02T20:41:35.695Z,9.77
2022-09-02T20:44:20.864Z,2.38
2022-09-02T20:47:08.601Z,6.88
2022-09-02T20:50:00.959Z,7.28
2022-09-02T20:52:33.617Z,7.15
2022-09-02T20:55:11.689Z,3.17
2022-09-02T20:57:50.018Z,5.43
2022-09-02T21:00:20.551Z,3.13
2022-09-02T21:02:57.825Z,4.05
2022-09-02T21:05:32.998Z,4.68
2022-09-02T21:08:22.178Z,5.22
2022-09-02T21:10:52.482Z,7.65
2022-09-02T21:13:34.008Z,7.35
2022-09-02T21:16:08.423Z,2.88
2022-09-02T21:18:56.120Z,3.28
2022-09-02T21:21:34.460Z,7.22
2022-09-02T21:24:16.485Z,6.63
2022-09-02T21:26:48.992Z,10.07
2022-09-02T21:29:29.546Z,3.33
2022-09-02T21:32:04.508Z,4.03
2022-09-02T21:34:38.736Z,8.52
2022-09-02T21:37:06.649Z,4.45
2022-09-02T21:39:38.308Z,5.13
2022-09-02T21:42:23.636Z,3.42
2022-09-02T21:44:56.552Z,4.72
2022-09-02T21:47:37.275Z,3.45
2022-09-02T21:50:40.414Z,3.17
2022-09-02T21:53:17.639Z,3.15
2022-09-02T21:55:56.101Z,2.85
2022-09-02T21:58:41.516Z,3.75
2022-09-02T22:01:14.461Z,5.40
2022-09-02T22:03:55.427Z,3.35
2022-09-02T22:06:37.889Z,4.95
2022-09-02T22:09:10.998Z,4.00
2022-09-02T22:11:54.393Z,6.43
2022-09-02T22:14:34.295Z,2.47
2022-09-02T22:17:30.401Z,4.80
2022-09-02T22:19:59.335Z,8.15
2022-09-02T22:22:47.561Z,4.43
2022-09-02T22:25:16.934Z,2.20
2022-09-02T22:28:08.846Z,2.90
2022-09-02T22:30:38.837Z,6.38
2022-09-02T22:33:12.028Z,3.70
2022-09-02T22:35:55.081Z,2.78
2022-09-02T22:38:27.738Z,3.10
2022-09-02T22:41:24.958Z,4.50
2022-09-02T22:44:01.371Z,4.50
2022-09-02T22:47:07.944Z,5.60
2022-09-02T22:50:00.080Z,4.03
2022-09-02T22:52:54.528Z,2.03
2022-09-02T22:55:39.759Z,3.33
2022-09-02T22:58:22.376Z,4.55
2022-09-02T23:00:53.921Z,4.25
2022-09-02T23:03:42.744Z,3.10
2022-09-02T23:06:15.792Z,2.30
2022-09-02T23:08:44.175Z,2.50
2022-09-02T23:11:16.613Z,2.85
2022-09-02T23:14:08.967Z,2.55
2022-09-02T23:16:48.096Z,6.70
2022-09-02T23:19:56.463Z,5.60
2022-09-02T23:22:34.460Z,3.28
2022-09-02T23:25:33.544Z,3.75
2022-09-02T23:28:01.428Z,6.65
2022-09-02T23:30:27.963Z,3.25
2022-09-02T23:33:03.657Z,4.65
2022-09-02T23:35:33.732Z,2.78
2022-09-02T23:38:12.440Z,3.65
2022-09-02T23:41:06.775Z,3.72
2022-09-02T23:43:34.204Z,3.72
2022-09-02T23:46:17.469Z,2.85
2022-09-02T23:48:53.881Z,2.72
2022-09-02T23:51:40.756Z,3.72
2022-09-02T23:54:24.903Z,2.20
2022-09-02T23:57:09.883Z,2.20
2022-09-02T23:59:46.016Z,5.72
